createdAt,value
2019-03-23T00:00:40.389Z,8.60
2019-03-23T00:01:40.373Z,8.90
2019-03-23T00:02:40.392Z,8.00
2019-03-23T00:03:40.353Z,9.00
2019-03-23T00:04:40.365Z,8.50
2019-03-23T00:05:40.330Z,8.60
2019-03-23T00:06:40.321Z,8.50
2019-03-23T00:07:40.316Z,8.40
2019-03-23T00:08:40.308Z,8.80
2019-03-23T00:09:40.311Z,8.50
2019-03-23T00:10:40.294Z,8.20
2019-03-23T00:11:40.487Z,8.10
2019-03-23T00:12:40.273Z,8.00
2019-03-23T00:13:40.245Z,8.30
2019-03-23T00:14:40.241Z,8.00
2019-03-23T00:15:40.262Z,7.50
2019-03-23T00:16:40.235Z,8.30
2019-03-23T00:17:40.206Z,8.10
2019-03-23T00:18:40.190Z,7.80
2019-03-23T00:19:40.191Z,8.00
2019-03-23T00:20:40.176Z,7.70
2019-03-23T00:21:40.199Z,8.20
2019-03-23T00:22:40.170Z,7.90
2019-03-23T00:23:40.181Z,7.70
2019-03-23T00:24:40.128Z,8.10
2019-03-23T00:25:40.121Z,7.80
2019-03-23T00:26:40.113Z,8.20
2019-03-23T00:27:40.125Z,8.10
2019-03-23T00:28:40.110Z,7.30
2019-03-23T00:29:40.077Z,7.60
2019-03-23T00:30:40.064Z,7.10
2019-03-23T00:31:40.055Z,8.20
2019-03-23T00:32:40.039Z,7.90
2019-03-23T00:33:40.085Z,7.40
2019-03-23T00:34:40.023Z,8.20
2019-03-23T00:35:40.011Z,7.90
2019-03-23T00:36:41.796Z,8.40
2019-03-23T00:37:39.984Z,8.50
2019-03-23T00:38:39.990Z,8.10
2019-03-23T00:39:40.019Z,7.80
2019-03-23T00:40:39.955Z,7.70
2019-03-23T00:41:39.945Z,8.70
2019-03-23T00:42:39.931Z,9.40
2019-03-23T00:43:39.936Z,9.10
2019-03-23T00:44:39.909Z,10.20
2019-03-23T00:45:39.948Z,10.10
2019-03-23T00:46:39.886Z,10.60
2019-03-23T00:47:39.879Z,10.60
2019-03-23T00:48:39.895Z,11.10
2019-03-23T00:49:39.854Z,12.20
2019-03-23T00:50:39.849Z,11.30
2019-03-23T00:51:39.875Z,11.10
2019-03-23T00:52:39.822Z,11.50
2019-03-23T00:53:39.833Z,12.30
2019-03-23T00:54:39.808Z,13.10
2019-03-23T00:55:39.792Z,12.20
2019-03-23T00:56:39.790Z,12.20
2019-03-23T00:57:39.795Z,12.90
2019-03-23T00:58:39.782Z,12.90
2019-03-23T00:59:39.769Z,12.10
2019-03-23T01:00:39.740Z,12.70
2019-03-23T01:01:39.730Z,11.70
2019-03-23T01:02:41.690Z,13.30
2019-03-23T01:03:39.705Z,12.40
2019-03-23T01:04:39.714Z,12.90
2019-03-23T01:05:39.733Z,13.50
2019-03-23T01:06:39.727Z,12.60
2019-03-23T01:07:39.668Z,14.00
2019-03-23T01:08:39.658Z,13.30
2019-03-23T01:09:39.639Z,12.40
2019-03-23T01:10:39.628Z,14.30
2019-03-23T01:11:39.654Z,13.00
2019-03-23T01:12:39.647Z,14.20
2019-03-23T01:13:39.628Z,13.50
2019-03-23T01:14:39.589Z,13.00
2019-03-23T01:15:39.580Z,14.50
2019-03-23T01:16:39.577Z,13.90
2019-03-23T01:17:39.574Z,12.80
2019-03-23T01:18:39.609Z,13.40
2019-03-23T01:19:39.541Z,13.40
2019-03-23T01:20:49.373Z,13.50
2019-03-23T01:21:40.513Z,13.90
2019-03-23T01:22:39.518Z,13.20
2019-03-23T01:23:39.512Z,13.30
2019-03-23T01:24:39.501Z,11.60
2019-03-23T01:25:39.468Z,11.60
2019-03-23T01:26:39.466Z,12.60
2019-03-23T01:27:39.458Z,11.70
2019-03-23T01:28:39.438Z,11.60
2019-03-23T01:29:39.454Z,10.90
2019-03-23T01:30:39.454Z,9.90
2019-03-23T01:31:39.413Z,10.40
2019-03-23T01:32:39.395Z,10.10
2019-03-23T01:33:39.387Z,9.80
2019-03-23T01:34:39.376Z,9.80
2019-03-23T01:35:39.382Z,8.90
2019-03-23T01:36:39.381Z,10.20
2019-03-23T01:37:39.342Z,9.40
2019-03-23T01:38:39.334Z,9.20
2019-03-23T01:39:39.347Z,10.00
2019-03-23T01:40:39.328Z,9.80
2019-03-23T01:41:39.306Z,9.30
2019-03-23T01:42:39.317Z,9.60
2019-03-23T01:43:39.319Z,10.00
2019-03-23T01:44:39.292Z,9.90
2019-03-23T01:45:39.266Z,9.40
2019-03-23T01:46:39.258Z,9.30
2019-03-23T01:47:39.238Z,9.70
2019-03-23T01:48:39.239Z,8.20
2019-03-23T01:49:39.249Z,9.20
2019-03-23T01:50:39.226Z,9.00
2019-03-23T01:51:39.205Z,8.10
2019-03-23T01:52:39.190Z,9.10
2019-03-23T01:53:39.185Z,8.70
2019-03-23T01:54:39.170Z,8.30
2019-03-23T01:55:39.352Z,8.50
2019-03-23T01:56:39.149Z,8.10
2019-03-23T01:57:39.134Z,8.60
2019-03-23T01:58:39.129Z,8.10
2019-03-23T01:59:39.120Z,8.60
2019-03-23T02:00:39.120Z,8.10
2019-03-23T02:01:39.124Z,8.70
2019-03-23T02:02:39.112Z,8.00
2019-03-23T02:03:39.071Z,8.80
2019-03-23T02:04:39.069Z,8.50
2019-03-23T02:05:39.049Z,8.60
2019-03-23T02:06:39.060Z,8.70
2019-03-23T02:07:39.037Z,7.80
2019-03-23T02:08:39.049Z,8.40
2019-03-23T02:09:39.046Z,8.50
2019-03-23T02:10:38.996Z,8.50
2019-03-23T02:11:38.989Z,8.50
2019-03-23T02:12:38.994Z,8.80
2019-03-23T02:13:38.963Z,8.90
2019-03-23T02:14:38.953Z,9.80
2019-03-23T02:15:39.005Z,11.70
2019-03-23T02:16:38.984Z,12.40
2019-03-23T02:17:38.936Z,18.70
2019-03-23T02:18:38.915Z,16.80
2019-03-23T02:19:38.899Z,20.60
2019-03-23T02:20:38.907Z,20.90
2019-03-23T02:21:38.932Z,20.60
2019-03-23T02:22:38.869Z,21.50
2019-03-23T02:23:38.860Z,20.80
2019-03-23T02:24:38.847Z,18.60
2019-03-23T02:25:38.856Z,19.00
2019-03-23T02:26:38.826Z,19.50
2019-03-23T02:27:38.844Z,18.40
2019-03-23T02:28:38.845Z,15.10
2019-03-23T02:29:38.802Z,14.60
2019-03-23T02:30:38.818Z,13.10
2019-03-23T02:31:38.774Z,12.40
2019-03-23T02:32:38.778Z,12.50
2019-03-23T02:33:38.767Z,12.00
2019-03-23T02:34:38.759Z,12.00
2019-03-23T02:35:38.740Z,13.30
2019-03-23T02:36:38.737Z,18.60
2019-03-23T02:37:38.945Z,16.80
2019-03-23T02:38:38.700Z,25.40
2019-03-23T02:39:38.705Z,25.20
2019-03-23T02:40:38.735Z,27.20
2019-03-23T02:41:38.690Z,30.60
2019-03-23T02:42:38.685Z,29.10
2019-03-23T02:43:38.651Z,30.60
2019-03-23T02:44:38.647Z,30.90
2019-03-23T02:45:38.656Z,26.80
2019-03-23T02:46:38.634Z,28.20
2019-03-23T02:47:38.693Z,30.20
2019-03-23T02:48:38.607Z,35.10
2019-03-23T02:49:38.591Z,31.50
2019-03-23T02:50:38.580Z,33.50
2019-03-23T02:51:39.878Z,30.40
2019-03-23T02:52:38.555Z,29.70
2019-03-23T02:53:38.563Z,25.50
2019-03-23T02:54:38.574Z,20.00
2019-03-23T02:55:38.525Z,16.00
2019-03-23T02:56:38.520Z,13.80
2019-03-23T02:57:38.533Z,13.40
2019-03-23T02:58:38.489Z,15.60
2019-03-23T02:59:38.503Z,16.20
2019-03-23T03:00:38.545Z,19.40
2019-03-23T03:01:38.477Z,19.50
2019-03-23T03:02:38.447Z,23.20
2019-03-23T03:03:38.435Z,23.60
2019-03-23T03:04:38.433Z,26.30
2019-03-23T03:05:38.430Z,28.00
2019-03-23T03:06:38.468Z,26.40
2019-03-23T03:07:42.688Z,28.70
2019-03-23T03:08:38.380Z,27.90
2019-03-23T03:09:38.375Z,28.60
2019-03-23T03:10:38.357Z,30.80
2019-03-23T03:11:38.374Z,29.70
2019-03-23T03:12:38.400Z,29.10
2019-03-23T03:13:38.324Z,26.50
2019-03-23T03:14:38.315Z,26.70
2019-03-23T03:15:38.306Z,26.00
2019-03-23T03:16:38.300Z,26.30
2019-03-23T03:17:38.304Z,26.70
2019-03-23T03:18:38.292Z,28.60
2019-03-23T03:19:38.336Z,25.70
2019-03-23T03:20:38.260Z,24.40
2019-03-23T03:21:38.253Z,26.70
2019-03-23T03:22:38.235Z,27.30
2019-03-23T03:23:38.245Z,27.20
2019-03-23T03:24:38.307Z,28.10
2019-03-23T03:25:38.200Z,28.30
2019-03-23T03:26:38.190Z,30.60
2019-03-23T03:27:38.194Z,31.10
2019-03-23T03:28:38.170Z,29.90
2019-03-23T03:29:38.179Z,31.10
2019-03-23T03:30:38.235Z,34.10
2019-03-23T03:31:38.171Z,38.70
2019-03-23T03:32:38.230Z,40.00
2019-03-23T03:33:38.112Z,38.00
2019-03-23T03:34:38.125Z,40.70
2019-03-23T03:35:38.091Z,41.20
2019-03-23T03:36:38.091Z,44.70
2019-03-23T03:37:38.076Z,42.20
2019-03-23T03:38:38.079Z,46.90
2019-03-23T03:39:38.086Z,45.00
2019-03-23T03:40:38.062Z,44.30
2019-03-23T03:41:38.077Z,45.60
2019-03-23T03:42:38.038Z,43.30
2019-03-23T03:43:38.025Z,43.80
2019-03-23T03:44:38.034Z,40.40
2019-03-23T03:45:37.997Z,39.80
2019-03-23T03:46:37.983Z,38.60
2019-03-23T03:47:41.073Z,36.60
2019-03-23T03:48:37.958Z,33.70
2019-03-23T03:49:37.975Z,36.70
2019-03-23T03:50:37.991Z,37.90
2019-03-23T03:51:37.922Z,38.40
2019-03-23T03:52:37.944Z,39.00
2019-03-23T03:53:37.900Z,42.00
2019-03-23T03:54:37.898Z,52.20
2019-03-23T03:55:37.885Z,56.80
2019-03-23T03:56:37.912Z,48.80
2019-03-23T03:57:37.910Z,60.50
2019-03-23T03:58:37.868Z,67.40
2019-03-23T03:59:37.841Z,69.20
2019-03-23T04:00:37.823Z,69.10
2019-03-23T04:01:37.815Z,66.00
2019-03-23T04:02:37.843Z,63.70
2019-03-23T04:03:37.804Z,65.20
2019-03-23T04:04:37.803Z,65.40
2019-03-23T04:05:37.795Z,61.20
2019-03-23T04:06:37.786Z,66.80
2019-03-23T04:07:37.780Z,70.90
2019-03-23T04:08:37.745Z,65.30
2019-03-23T04:09:40.313Z,67.30
2019-03-23T04:10:37.801Z,66.60
2019-03-23T04:11:37.719Z,73.70
2019-03-23T04:12:37.712Z,69.30
2019-03-23T04:13:37.689Z,72.30
2019-03-23T04:14:37.698Z,69.60
2019-03-23T04:15:37.664Z,66.50
2019-03-23T04:16:37.698Z,70.50
2019-03-23T04:17:37.652Z,66.50
2019-03-23T04:18:37.671Z,66.80
2019-03-23T04:19:37.626Z,65.40
2019-03-23T04:20:37.621Z,70.90
2019-03-23T04:21:37.609Z,68.30
2019-03-23T04:22:37.629Z,73.30
2019-03-23T04:23:37.947Z,80.60
2019-03-23T04:24:37.593Z,85.20
2019-03-23T04:25:37.572Z,81.10
2019-03-23T04:26:39.368Z,71.00
2019-03-23T04:27:37.571Z,73.50
2019-03-23T04:28:37.553Z,76.30
2019-03-23T04:29:37.552Z,75.10
2019-03-23T04:30:37.514Z,74.40
2019-03-23T04:31:37.508Z,78.90
2019-03-23T04:32:37.508Z,75.90
2019-03-23T04:33:37.482Z,79.20
2019-03-23T04:34:37.462Z,78.50
2019-03-23T04:35:37.472Z,84.50
2019-03-23T04:36:37.478Z,83.50
2019-03-23T04:37:37.469Z,84.10
2019-03-23T04:38:37.426Z,83.50
2019-03-23T04:39:37.409Z,88.90
2019-03-23T04:40:37.410Z,91.80
2019-03-23T04:41:37.405Z,83.40
2019-03-23T04:42:37.384Z,81.20
2019-03-23T04:43:37.398Z,79.70
2019-03-23T04:44:37.422Z,83.50
2019-03-23T04:45:37.361Z,86.60
2019-03-23T04:46:37.340Z,93.00
2019-03-23T04:47:37.346Z,87.70
2019-03-23T04:48:37.340Z,87.80
2019-03-23T04:49:37.306Z,91.60
2019-03-23T04:50:37.368Z,95.40
2019-03-23T04:51:37.289Z,102.40
2019-03-23T04:52:37.273Z,89.40
2019-03-23T04:53:37.281Z,87.00
2019-03-23T04:54:38.944Z,109.30
2019-03-23T04:55:37.244Z,91.30
2019-03-23T04:56:37.251Z,103.80
2019-03-23T04:57:37.271Z,91.50
2019-03-23T04:58:37.213Z,102.90
2019-03-23T04:59:37.259Z,91.20
2019-03-23T05:00:37.208Z,89.10
2019-03-23T05:01:37.230Z,92.70
2019-03-23T05:02:37.239Z,91.20
2019-03-23T05:03:37.195Z,89.90
2019-03-23T05:04:37.196Z,95.20
2019-03-23T05:05:37.187Z,91.70
2019-03-23T05:06:37.163Z,88.60
2019-03-23T05:07:37.159Z,85.40
2019-03-23T05:08:37.247Z,99.00
2019-03-23T05:09:37.172Z,94.90
2019-03-23T05:10:37.156Z,99.30
2019-03-23T05:11:37.165Z,101.20
2019-03-23T05:12:37.158Z,91.40
2019-03-23T05:13:37.130Z,93.30
2019-03-23T05:14:37.073Z,100.50
2019-03-23T05:15:37.079Z,87.20
2019-03-23T05:16:37.076Z,94.80
2019-03-23T05:17:37.077Z,87.70
2019-03-23T05:18:37.108Z,92.40
2019-03-23T05:19:37.777Z,85.30
2019-03-23T05:20:37.024Z,88.50
2019-03-23T05:21:37.022Z,87.30
2019-03-23T05:22:37.006Z,84.50
2019-03-23T05:23:37.023Z,81.30
2019-03-23T05:24:36.989Z,87.60
2019-03-23T05:25:37.028Z,87.10
2019-03-23T05:26:36.917Z,84.40
2019-03-23T05:27:36.906Z,90.30
2019-03-23T05:28:36.912Z,85.00
2019-03-23T05:29:36.885Z,78.70
2019-03-23T05:30:36.868Z,82.60
2019-03-23T05:31:36.878Z,81.20
2019-03-23T05:32:36.851Z,81.30
2019-03-23T05:33:36.851Z,84.50
2019-03-23T05:34:36.877Z,86.00
2019-03-23T05:35:36.821Z,88.00
2019-03-23T05:36:36.808Z,86.00
2019-03-23T05:37:36.800Z,88.10
2019-03-23T05:38:44.314Z,80.70
2019-03-23T05:39:37.773Z,83.70
2019-03-23T05:40:36.772Z,89.50
2019-03-23T05:41:36.762Z,84.70
2019-03-23T05:42:36.747Z,82.00
2019-03-23T05:43:36.746Z,88.60
2019-03-23T05:44:36.776Z,87.30
2019-03-23T05:45:36.717Z,84.90
2019-03-23T05:46:36.709Z,87.20
2019-03-23T05:47:36.693Z,86.50
2019-03-23T05:48:36.886Z,82.40
2019-03-23T05:49:36.688Z,79.30
2019-03-23T05:50:36.678Z,80.60
2019-03-23T05:51:36.648Z,83.40
2019-03-23T05:52:36.636Z,77.40
2019-03-23T05:53:36.624Z,79.10
2019-03-23T05:54:36.616Z,81.50
2019-03-23T05:55:36.626Z,83.70
2019-03-23T05:56:36.614Z,85.80
2019-03-23T05:57:36.647Z,85.90
2019-03-23T05:58:36.576Z,82.60
2019-03-23T05:59:36.575Z,89.10
2019-03-23T06:00:36.568Z,88.10
2019-03-23T06:01:36.562Z,86.60
2019-03-23T06:02:36.528Z,88.20
2019-03-23T06:03:36.569Z,81.40
2019-03-23T06:04:36.519Z,87.40
2019-03-23T06:05:36.500Z,82.70
2019-03-23T06:06:36.489Z,84.70
2019-03-23T06:07:36.506Z,84.80
2019-03-23T06:08:36.517Z,80.10
2019-03-23T06:09:36.707Z,88.20
2019-03-23T06:10:36.456Z,84.20
2019-03-23T06:11:36.449Z,80.70
2019-03-23T06:12:36.429Z,80.00
2019-03-23T06:13:36.432Z,81.00
2019-03-23T06:14:36.404Z,74.70
2019-03-23T06:15:36.427Z,76.10
2019-03-23T06:16:36.386Z,77.10
2019-03-23T06:17:36.371Z,78.90
2019-03-23T06:18:36.362Z,75.90
2019-03-23T06:19:36.373Z,70.80
2019-03-23T06:20:36.346Z,71.70
2019-03-23T06:21:36.423Z,68.70
2019-03-23T06:22:36.325Z,68.60
2019-03-23T06:23:36.310Z,70.00
2019-03-23T06:24:36.303Z,67.70
2019-03-23T06:25:36.307Z,68.30
2019-03-23T06:26:36.283Z,64.90
2019-03-23T06:27:36.287Z,66.50
2019-03-23T06:28:36.264Z,63.60
2019-03-23T06:29:36.253Z,62.20
2019-03-23T06:30:36.235Z,66.90
2019-03-23T06:31:36.245Z,61.20
2019-03-23T06:32:36.216Z,62.10
2019-03-23T06:33:36.239Z,61.50
2019-03-23T06:34:36.198Z,61.00
2019-03-23T06:35:36.184Z,58.70
2019-03-23T06:36:36.173Z,60.20
2019-03-23T06:37:36.186Z,59.60
2019-03-23T06:38:36.160Z,61.70
2019-03-23T06:39:36.210Z,60.40
2019-03-23T06:40:36.159Z,59.10
2019-03-23T06:41:36.154Z,57.60
2019-03-23T06:42:36.117Z,55.50
2019-03-23T06:43:36.111Z,56.50
2019-03-23T06:44:36.116Z,56.30
2019-03-23T06:45:36.087Z,56.70
2019-03-23T06:46:36.071Z,54.10
2019-03-23T06:47:36.078Z,55.20
2019-03-23T06:48:36.065Z,51.60
2019-03-23T06:49:36.071Z,55.30
2019-03-23T06:50:36.173Z,53.10
2019-03-23T06:51:36.236Z,54.90
2019-03-23T06:52:36.026Z,52.70
2019-03-23T06:53:36.016Z,53.60
2019-03-23T06:54:35.996Z,52.70
2019-03-23T06:55:36.007Z,53.70
2019-03-23T06:56:35.982Z,55.70
2019-03-23T06:57:35.966Z,53.30
2019-03-23T06:58:36.083Z,55.30
2019-03-23T06:59:35.966Z,54.70
2019-03-23T07:00:35.963Z,53.70
2019-03-23T07:01:35.936Z,53.10
2019-03-23T07:02:35.924Z,53.40
2019-03-23T07:03:35.902Z,53.80
2019-03-23T07:04:36.024Z,51.00
2019-03-23T07:05:35.879Z,51.40
2019-03-23T07:06:35.871Z,51.30
2019-03-23T07:07:35.866Z,52.60
2019-03-23T07:08:35.858Z,52.00
2019-03-23T07:09:35.831Z,52.50
2019-03-23T07:10:35.851Z,53.20
2019-03-23T07:11:35.867Z,52.80
2019-03-23T07:12:36.012Z,53.10
2019-03-23T07:13:35.839Z,52.40
2019-03-23T07:14:35.809Z,49.50
2019-03-23T07:15:35.773Z,52.10
2019-03-23T07:16:35.829Z,51.80
2019-03-23T07:17:35.746Z,54.30
2019-03-23T07:18:35.736Z,50.30
2019-03-23T07:19:35.813Z,51.10
2019-03-23T07:20:35.715Z,50.20
2019-03-23T07:21:35.721Z,52.70
2019-03-23T07:22:35.745Z,52.70
2019-03-23T07:23:35.675Z,52.80
2019-03-23T07:24:35.695Z,50.90
2019-03-23T07:25:35.859Z,51.10
2019-03-23T07:26:35.737Z,51.30
2019-03-23T07:27:35.642Z,53.30
2019-03-23T07:28:35.692Z,49.30
2019-03-23T07:29:35.661Z,51.40
2019-03-23T07:30:35.696Z,51.60
2019-03-23T07:31:35.684Z,50.20
2019-03-23T07:32:35.645Z,52.30
2019-03-23T07:33:35.610Z,52.00
2019-03-23T07:34:35.652Z,53.00
2019-03-23T07:35:35.564Z,50.20
2019-03-23T07:36:35.538Z,51.20
2019-03-23T07:37:35.535Z,50.30
2019-03-23T07:38:35.541Z,49.70
2019-03-23T07:39:35.503Z,52.30
2019-03-23T07:40:35.494Z,51.40
2019-03-23T07:41:35.505Z,51.40
2019-03-23T07:42:35.488Z,51.70
2019-03-23T07:43:35.459Z,50.90
2019-03-23T07:44:35.457Z,53.30
2019-03-23T07:45:35.451Z,50.40
2019-03-23T07:46:35.430Z,50.50
2019-03-23T07:47:35.454Z,52.20
2019-03-23T07:48:35.407Z,49.90
2019-03-23T07:49:35.408Z,51.80
2019-03-23T07:50:35.416Z,51.20
2019-03-23T07:51:35.371Z,53.70
2019-03-23T07:52:35.368Z,52.40
2019-03-23T07:53:35.378Z,51.30
2019-03-23T07:54:35.346Z,52.40
2019-03-23T07:55:35.351Z,50.40
2019-03-23T07:56:35.328Z,50.50
2019-03-23T07:57:35.325Z,49.80
2019-03-23T07:58:35.318Z,49.10
2019-03-23T07:59:35.317Z,50.00
2019-03-23T08:00:35.316Z,49.00
2019-03-23T08:01:35.312Z,49.80
2019-03-23T08:02:35.275Z,52.50
2019-03-23T08:03:35.253Z,48.60
2019-03-23T08:04:35.254Z,50.30
2019-03-23T08:05:35.261Z,51.10
2019-03-23T08:06:35.214Z,50.70
2019-03-23T08:07:35.217Z,49.50
2019-03-23T08:08:35.229Z,50.50
2019-03-23T08:09:37.840Z,49.60
2019-03-23T08:10:35.196Z,51.60
2019-03-23T08:11:35.170Z,50.10
2019-03-23T08:12:35.148Z,50.70
2019-03-23T08:13:35.162Z,48.80
2019-03-23T08:14:36.212Z,51.50
2019-03-23T08:15:35.119Z,50.60
2019-03-23T08:16:35.177Z,50.90
2019-03-23T08:17:35.122Z,52.00
2019-03-23T08:18:35.081Z,51.20
2019-03-23T08:19:35.078Z,51.70
2019-03-23T08:20:35.066Z,49.40
2019-03-23T08:21:35.066Z,50.00
2019-03-23T08:22:35.037Z,48.70
2019-03-23T08:23:35.063Z,49.60
2019-03-23T08:24:35.032Z,51.00
2019-03-23T08:25:35.003Z,51.00
2019-03-23T08:26:35.008Z,49.70
2019-03-23T08:27:35.025Z,51.70
2019-03-23T08:28:34.979Z,50.10
2019-03-23T08:29:34.986Z,52.10
2019-03-23T08:30:34.974Z,51.30
2019-03-23T08:31:35.054Z,52.40
2019-03-23T08:32:34.941Z,51.30
2019-03-23T08:33:34.935Z,50.40
2019-03-23T08:34:34.928Z,50.70
2019-03-23T08:35:34.901Z,48.50
2019-03-23T08:36:35.268Z,50.60
2019-03-23T08:37:34.893Z,50.00
2019-03-23T08:38:34.883Z,49.60
2019-03-23T08:39:35.006Z,49.00
2019-03-23T08:40:35.893Z,50.70
2019-03-23T08:41:34.863Z,51.40
2019-03-23T08:42:35.068Z,48.90
2019-03-23T08:43:34.830Z,53.10
2019-03-23T08:44:34.819Z,50.90
2019-03-23T08:45:34.817Z,51.20
2019-03-23T08:46:34.802Z,49.80
2019-03-23T08:47:34.785Z,50.10
2019-03-23T08:48:34.777Z,50.90
2019-03-23T08:49:34.768Z,49.50
2019-03-23T08:50:34.767Z,52.00
2019-03-23T08:51:34.728Z,51.10
2019-03-23T08:52:34.720Z,50.60
2019-03-23T08:53:34.732Z,51.30
2019-03-23T08:54:34.715Z,51.40
2019-03-23T08:55:34.718Z,49.60
2019-03-23T08:56:34.703Z,51.20
2019-03-23T08:57:34.668Z,50.30
2019-03-23T08:58:34.657Z,49.30
2019-03-23T08:59:35.057Z,51.80
2019-03-23T09:00:34.633Z,50.50
2019-03-23T09:01:34.641Z,51.60
2019-03-23T09:02:34.626Z,52.10
2019-03-23T09:03:34.646Z,50.40
2019-03-23T09:04:34.587Z,52.70
2019-03-23T09:05:34.592Z,51.10
2019-03-23T09:06:34.570Z,51.10
2019-03-23T09:07:34.559Z,49.80
2019-03-23T09:08:34.547Z,53.00
2019-03-23T09:09:34.538Z,50.60
2019-03-23T09:10:34.602Z,50.10
2019-03-23T09:11:34.542Z,53.90
2019-03-23T09:12:34.554Z,52.20
2019-03-23T09:13:40.618Z,52.60
2019-03-23T09:14:35.505Z,51.70
2019-03-23T09:15:34.472Z,52.50
2019-03-23T09:16:34.475Z,51.90
2019-03-23T09:17:34.507Z,50.90
2019-03-23T09:18:34.437Z,50.10
2019-03-23T09:19:34.428Z,50.40
2019-03-23T09:20:34.448Z,52.10
2019-03-23T09:21:34.412Z,52.00
2019-03-23T09:22:34.523Z,48.50
2019-03-23T09:23:34.388Z,52.20
2019-03-23T09:24:34.384Z,46.30
2019-03-23T09:25:34.382Z,47.70
2019-03-23T09:26:34.367Z,48.30
2019-03-23T09:27:34.456Z,46.70
2019-03-23T09:28:34.385Z,46.80
2019-03-23T09:29:34.332Z,46.20
2019-03-23T09:30:34.328Z,43.30
2019-03-23T09:31:34.299Z,43.00
2019-03-23T09:32:34.340Z,45.90
2019-03-23T09:33:34.283Z,46.20
2019-03-23T09:34:34.285Z,46.00
2019-03-23T09:35:34.307Z,45.70
2019-03-23T09:36:34.294Z,47.10
2019-03-23T09:37:38.303Z,47.20
2019-03-23T09:38:34.285Z,46.50
2019-03-23T09:39:34.243Z,49.10
2019-03-23T09:40:34.222Z,47.50
2019-03-23T09:41:34.208Z,50.10
2019-03-23T09:42:34.201Z,48.30
2019-03-23T09:43:34.186Z,50.50
2019-03-23T09:44:34.159Z,51.40
2019-03-23T09:45:34.169Z,48.60
2019-03-23T09:46:34.239Z,50.30
2019-03-23T09:47:34.220Z,48.60
2019-03-23T09:48:34.120Z,50.10
2019-03-23T09:49:34.151Z,48.30
2019-03-23T09:50:34.096Z,49.20
2019-03-23T09:51:34.094Z,49.50
2019-03-23T09:52:34.118Z,49.90
2019-03-23T09:53:34.093Z,46.80
2019-03-23T09:54:34.080Z,47.10
2019-03-23T09:55:34.155Z,44.50
2019-03-23T09:56:34.085Z,46.70
2019-03-23T09:57:34.062Z,43.60
2019-03-23T09:58:34.043Z,45.60
2019-03-23T09:59:34.024Z,43.80
2019-03-23T10:00:34.005Z,41.90
2019-03-23T10:01:34.022Z,44.30
2019-03-23T10:02:33.988Z,42.80
2019-03-23T10:03:34.042Z,44.30
2019-03-23T10:04:33.963Z,42.00
2019-03-23T10:05:33.949Z,43.20
2019-03-23T10:06:33.960Z,44.10
2019-03-23T10:07:33.932Z,45.00
2019-03-23T10:08:33.968Z,43.60
2019-03-23T10:09:33.904Z,44.30
2019-03-23T10:10:33.965Z,43.10
2019-03-23T10:11:33.888Z,44.60
2019-03-23T10:12:33.879Z,44.00
2019-03-23T10:13:33.861Z,44.70
2019-03-23T10:14:33.913Z,44.40
2019-03-23T10:15:33.843Z,45.40
2019-03-23T10:16:33.841Z,47.10
2019-03-23T10:17:33.817Z,46.70
2019-03-23T10:18:33.932Z,47.50
2019-03-23T10:19:33.793Z,46.80
2019-03-23T10:20:33.817Z,46.60
2019-03-23T10:21:33.812Z,45.50
2019-03-23T10:22:33.987Z,46.50
2019-03-23T10:23:33.774Z,46.70
2019-03-23T10:24:33.760Z,46.20
2019-03-23T10:25:33.732Z,46.70
2019-03-23T10:26:33.742Z,47.60
2019-03-23T10:27:33.781Z,46.90
2019-03-23T10:28:33.705Z,45.60
2019-03-23T10:29:33.718Z,46.90
2019-03-23T10:30:33.684Z,45.80
2019-03-23T10:31:33.662Z,46.50
2019-03-23T10:32:33.677Z,45.60
2019-03-23T10:33:33.666Z,45.10
2019-03-23T10:34:33.631Z,45.80
2019-03-23T10:35:33.649Z,46.00
2019-03-23T10:36:33.617Z,45.80
2019-03-23T10:37:33.686Z,46.10
2019-03-23T10:38:33.644Z,46.80
2019-03-23T10:39:33.596Z,45.20
2019-03-23T10:40:33.571Z,45.90
2019-03-23T10:41:33.569Z,46.70
2019-03-23T10:42:33.629Z,45.90
2019-03-23T10:43:33.891Z,47.60
2019-03-23T10:44:33.552Z,46.50
2019-03-23T10:45:43.507Z,44.10
2019-03-23T10:46:34.521Z,43.80
2019-03-23T10:47:33.655Z,47.60
2019-03-23T10:48:33.522Z,44.20
2019-03-23T10:49:33.480Z,42.70
2019-03-23T10:50:33.581Z,45.90
2019-03-23T10:51:33.465Z,44.90
2019-03-23T10:52:33.458Z,46.80
2019-03-23T10:53:33.437Z,44.00
2019-03-23T10:54:33.467Z,45.70
2019-03-23T10:55:33.420Z,44.50
2019-03-23T10:56:33.403Z,45.60
2019-03-23T10:57:33.503Z,45.90
2019-03-23T10:58:33.400Z,46.40
2019-03-23T10:59:33.380Z,44.10
2019-03-23T11:00:33.399Z,46.20
2019-03-23T11:01:33.368Z,43.40
2019-03-23T11:02:33.388Z,44.60
2019-03-23T11:03:33.339Z,43.80
2019-03-23T11:04:33.343Z,44.50
2019-03-23T11:05:33.321Z,43.50
2019-03-23T11:06:33.338Z,42.70
2019-03-23T11:07:33.285Z,43.40
2019-03-23T11:08:33.290Z,43.60
2019-03-23T11:09:33.341Z,44.00
2019-03-23T11:10:41.545Z,43.80
2019-03-23T11:11:34.296Z,42.70
2019-03-23T11:12:33.232Z,44.60
2019-03-23T11:13:33.226Z,46.00
2019-03-23T11:14:33.348Z,43.90
2019-03-23T11:15:33.236Z,45.10
2019-03-23T11:16:33.190Z,44.50
2019-03-23T11:17:33.206Z,45.10
2019-03-23T11:18:33.277Z,44.40
2019-03-23T11:19:33.162Z,43.60
2019-03-23T11:20:33.170Z,43.90
2019-03-23T11:21:33.147Z,43.10
2019-03-23T11:22:33.130Z,43.40
2019-03-23T11:23:33.216Z,43.90
2019-03-23T11:24:33.153Z,45.50
2019-03-23T11:25:33.112Z,42.50
2019-03-23T11:26:33.143Z,44.80
2019-03-23T11:27:33.103Z,44.30
2019-03-23T11:28:33.073Z,45.80
2019-03-23T11:29:33.090Z,43.70
2019-03-23T11:30:33.058Z,45.70
2019-03-23T11:31:33.048Z,43.90
2019-03-23T11:32:33.041Z,42.70
2019-03-23T11:33:33.011Z,43.50
2019-03-23T11:34:33.013Z,43.70
2019-03-23T11:35:33.022Z,43.60
2019-03-23T11:36:33.008Z,44.70
2019-03-23T11:37:33.034Z,45.60
2019-03-23T11:38:32.958Z,46.20
2019-03-23T11:39:32.952Z,45.10
2019-03-23T11:40:32.983Z,45.20
2019-03-23T11:41:32.983Z,44.10
2019-03-23T11:42:33.748Z,45.20
2019-03-23T11:43:32.920Z,44.60
2019-03-23T11:44:32.953Z,46.70
2019-03-23T11:45:32.888Z,45.30
2019-03-23T11:46:32.878Z,42.40
2019-03-23T11:47:33.218Z,43.50
2019-03-23T11:48:32.856Z,42.90
2019-03-23T11:49:32.856Z,44.10
2019-03-23T11:50:32.845Z,46.10
2019-03-23T11:51:32.849Z,42.80
2019-03-23T11:52:32.837Z,40.30
2019-03-23T11:53:32.817Z,37.10
2019-03-23T11:54:32.809Z,40.40
2019-03-23T11:55:32.806Z,38.20
2019-03-23T11:56:32.778Z,37.10
2019-03-23T11:57:32.757Z,35.90
2019-03-23T11:58:32.757Z,38.30
2019-03-23T11:59:32.755Z,39.60
2019-03-23T12:00:32.796Z,38.30
2019-03-23T12:01:32.715Z,38.60
2019-03-23T12:02:32.735Z,38.40
2019-03-23T12:03:32.797Z,38.70
2019-03-23T12:04:32.699Z,38.90
2019-03-23T12:05:32.693Z,39.20
2019-03-23T12:06:32.677Z,41.00
2019-03-23T12:07:32.683Z,40.00
2019-03-23T12:08:32.863Z,39.10
2019-03-23T12:09:32.627Z,38.90
2019-03-23T12:10:32.634Z,38.70
2019-03-23T12:11:32.640Z,40.50
2019-03-23T12:12:32.636Z,41.60
2019-03-23T12:13:32.584Z,42.60
2019-03-23T12:14:32.597Z,39.10
2019-03-23T12:15:32.567Z,41.20
2019-03-23T12:16:32.557Z,41.60
2019-03-23T12:17:32.577Z,41.40
2019-03-23T12:18:32.538Z,40.30
2019-03-23T12:19:32.531Z,41.80
2019-03-23T12:20:32.516Z,41.40
2019-03-23T12:21:32.506Z,42.40
2019-03-23T12:22:32.496Z,43.50
2019-03-23T12:23:32.525Z,41.80
2019-03-23T12:24:32.496Z,43.50
2019-03-23T12:25:32.467Z,41.90
2019-03-23T12:26:32.441Z,43.10
2019-03-23T12:27:32.454Z,43.30
2019-03-23T12:28:32.518Z,42.90
2019-03-23T12:29:32.775Z,43.30
2019-03-23T12:30:32.408Z,40.90
2019-03-23T12:31:32.407Z,40.40
2019-03-23T12:32:32.389Z,38.20
2019-03-23T12:33:32.444Z,41.00
2019-03-23T12:34:32.379Z,40.40
2019-03-23T12:35:32.366Z,39.30
2019-03-23T12:36:32.335Z,39.40
2019-03-23T12:37:32.405Z,39.70
2019-03-23T12:38:32.321Z,39.60
2019-03-23T12:39:32.314Z,36.50
2019-03-23T12:40:32.302Z,38.20
2019-03-23T12:41:32.699Z,36.60
2019-03-23T12:42:32.310Z,36.90
2019-03-23T12:43:32.271Z,37.60
2019-03-23T12:44:32.258Z,35.70
2019-03-23T12:45:32.245Z,35.00
2019-03-23T12:46:32.246Z,33.90
2019-03-23T12:47:32.295Z,32.60
2019-03-23T12:48:32.232Z,31.20
2019-03-23T12:49:32.199Z,31.70
2019-03-23T12:50:32.480Z,31.80
2019-03-23T12:51:32.196Z,30.80
2019-03-23T12:52:32.166Z,31.90
2019-03-23T12:53:32.173Z,30.70
2019-03-23T12:54:32.156Z,31.80
2019-03-23T12:55:32.156Z,31.80